Time;durP1;ratioP1;P1;durP2;ratioP2;P2;SDS_P1;SDS_P2;PMS_P1;PMS_P2;Temp;Humidity;BMP_temperature;BMP_pressure;BME280_temperature;BME280_humidity;BME280_pressure;Samples;Min_cycle;Max_cycle;Signal;HPM_P1;HPM_P2
2023/01/20 00:01:56;;;;;;;112.60;50.20;;;;;;;-3.04;100.00;99940.61;216326;1296;139779;-86
2023/01/20 00:07:56;;;;;;;;;;;;;;;;;;;;;
2023/01/20 00:13:59;;;;;;;108.90;51.40;;;;;;;-3.13;100.00;99942.24;216434;1296;139315;-86
2023/01/20 00:25:59;;;;;;;;;;;;;;;;;;;;;
2023/01/20 00:32:14;;;;;;;101.70;48.70;;;;;;;-3.23;100.00;99953.67;216398;1296;139597;-86
2023/01/20 00:38:17;;;;;;;121.00;54.40;;;;;;;-3.27;100.00;99961.52;217067;1296;139223;-88
2023/01/20 00:44:16;;;;;;;121.00;54.70;;;;;;;-3.31;100.00;99966.48;216633;1296;140154;-87
2023/01/20 00:56:19;;;;;;;115.10;54.50;;;;;;;-3.39;100.00;99978.40;216873;1296;140716;-87
2023/01/20 01:02:20;;;;;;;124.50;54.10;;;;;;;-3.44;100.00;99982.52;216415;1296;139568;-85
2023/01/20 01:08:21;;;;;;;126.10;54.60;;;;;;;-3.51;100.00;99985.98;217040;1296;139280;-86
2023/01/20 01:14:05;;;;;;;119.30;54.80;;;;;;;-3.58;100.00;99987.30;216890;1297;139480;-86
2023/01/20 01:20:01;;;;;;;107.20;50.90;;;;;;;-3.63;100.00;99987.70;216491;1297;139408;-87
2023/01/20 01:32:04;;;;;;;104.50;49.20;;;;;;;-3.70;100.00;99998.84;216426;1297;139417;-86
2023/01/20 01:38:05;;;;;;;103.90;47.90;;;;;;;-3.77;100.00;99998.84;217066;1296;139237;-86
2023/01/20 01:44:07;;;;;;;105.10;47.60;;;;;;;-3.81;100.00;100004.02;216491;1296;140123;-86
2023/01/20 01:50:11;;;;;;;102.90;46.30;;;;;;;-3.85;100.00;100014.40;216444;1296;139842;-87
2023/01/20 01:56:12;;;;;;;100.50;45.70;;;;;;;-3.84;100.00;100021.32;217061;1297;139461;-86
2023/01/20 02:02:13;;;;;;;94.90;44.10;;;;;;;-3.88;100.00;100025.04;216500;1297;139954;-87
2023/01/20 02:08:14;;;;;;;86.00;40.90;;;;;;;-3.90;100.00;100038.83;217049;1297;139282;-86
2023/01/20 02:20:15;;;;;;;90.30;41.80;;;;;;;-3.92;100.00;100043.06;216461;1297;139870;-87
2023/01/20 02:26:25;;;;;;;95.60;42.50;;;;;;;-3.91;100.00;100048.20;217087;1296;139501;-87
2023/01/20 02:38:33;;;;;;;95.50;41.50;;;;;;;-3.88;100.00;100061.52;217035;1296;139260;-86
2023/01/20 02:45:00;;;;;;;;;;;;;;;;;;;;;
2023/01/20 02:51:06;;;;;;;93.80;38.40;;;;;;;-3.85;100.00;100072.66;216072;1296;139819;-86
2023/01/20 02:57:07;;;;;;;93.40;40.30;;;;;;;-3.84;100.00;100075.83;217061;1296;139445;-86
2023/01/20 03:03:07;;;;;;;78.60;35.30;;;;;;;-3.81;100.00;100079.19;216454;1297;139508;-87
2023/01/20 03:09:08;;;;;;;83.70;40.60;;;;;;;-3.79;100.00;100082.70;216352;1298;139408;-87
2023/01/20 03:15:10;;;;;;;85.60;37.00;;;;;;;-3.74;100.00;100086.33;216947;1296;139221;-87
2023/01/20 03:21:09;;;;;;;;;;;;;;;;;;;;;
2023/01/20 03:27:12;;;;;;;80.00;36.00;;;;;;;-3.67;100.00;100093.48;216949;1296;139438;-87
2023/01/20 03:45:23;;;;;;;78.70;34.50;;;;;;;-3.65;100.00;100092.86;216920;1296;139250;-87
2023/01/20 03:51:40;;;;;;;70.20;32.60;;;;;;;-3.67;100.00;100094.08;216542;1297;139953;-87
2023/01/20 03:57:36;;;;;;;;;;;;;;;;;;;;;
2023/01/20 04:03:51;;;;;;;91.40;38.20;;;;;;;-3.68;100.00;100113.73;216265;1297;139406;-91
2023/01/20 04:09:52;;;;;;;84.00;38.50;;;;;;;-3.70;100.00;100132.79;216539;1296;139525;-87
2023/01/20 04:15:51;;;;;;;74.00;34.30;;;;;;;-3.71;100.00;100142.91;216950;1297;139379;-87
2023/01/20 04:21:58;;;;;;;72.00;33.70;;;;;;;-3.69;100.00;100143.80;216518;1297;139779;-87
2023/01/20 04:27:51;;;;;;;;;;;;;;;;;;;;;
2023/01/20 04:33:45;;;;;;;;;;;;;;;;;;;;;
2023/01/20 04:39:54;;;;;;;73.80;33.00;;;;;;;-3.62;100.00;100164.84;216486;1296;139368;-87
2023/01/20 04:45:53;;;;;;;;;;;;;;;;;;;;;
2023/01/20 04:51:56;;;;;;;99.20;44.90;;;;;;;-3.49;100.00;100172.98;216527;1296;139486;-87
2023/01/20 04:57:57;;;;;;;85.80;41.40;;;;;;;-3.40;100.00;100176.80;217130;1297;139386;-87
2023/01/20 05:03:58;;;;;;;92.00;40.60;;;;;;;-3.32;100.00;100177.91;216462;1297;139749;-87
2023/01/20 05:10:00;;;;;;;82.90;38.70;;;;;;;-3.24;100.00;100176.65;216439;1296;140015;-86
2023/01/20 05:16:01;;;;;;;76.50;36.40;;;;;;;-3.14;100.00;100184.35;217099;1296;139842;-86
2023/01/20 05:22:02;;;;;;;83.90;38.30;;;;;;;-3.06;100.00;100188.74;216574;1296;139430;-86
2023/01/20 05:28:03;;;;;;;99.40;42.10;;;;;;;-2.96;100.00;100199.25;217069;1300;139212;-85
2023/01/20 05:34:03;;;;;;;;;;;;;;;;;;;;;
2023/01/20 05:40:06;;;;;;;92.00;41.50;;;;;;;-2.79;100.00;100220.77;216456;1296;139583;-86
2023/01/20 05:52:08;;;;;;;73.70;36.60;;;;;;;-2.62;100.00;100230.03;216572;1296;139237;-87
2023/01/20 05:58:09;;;;;;;82.40;36.80;;;;;;;-2.54;100.00;100238.19;216947;1296;139115;-87
2023/01/20 06:10:11;;;;;;;77.80;38.00;;;;;;;-2.38;100.00;100252.23;216429;1297;139657;-87
2023/01/20 06:16:00;;;;;;;;;;;;;;;;;;;;;
2023/01/20 06:22:01;;;;;;;67.70;34.30;;;;;;;-2.27;100.00;100270.21;216489;1297;139851;-87
2023/01/20 06:28:27;;;;;;;77.70;36.10;;;;;;;-2.19;100.00;100275.56;217034;1296;139200;-87
2023/01/20 06:34:03;;;;;;;71.40;34.80;;;;;;;-2.11;100.00;100284.17;216303;1296;140219;-84
2023/01/20 06:40:04;;;;;;;80.70;38.60;;;;;;;-2.06;100.00;100295.45;216492;1296;139671;-83
2023/01/20 06:46:06;;;;;;;83.50;38.30;;;;;;;-2.04;100.00;100303.34;217127;1296;139150;-83
2023/01/20 06:52:08;;;;;;;;;;;;;;;;;;;;;
2023/01/20 06:58:11;;;;;;;102.00;47.90;;;;;;;-1.91;100.00;100320.95;217063;1296;139090;-84
2023/01/20 07:04:02;;;;;;;82.50;40.90;;;;;;;-1.85;100.00;100323.96;216507;1296;140169;-83
2023/01/20 07:10:03;;;;;;;91.90;40.40;;;;;;;-1.80;100.00;100336.53;216556;1296;139720;-83
2023/01/20 07:15:52;;;;;;;;;;;;;;;;;;;;;
2023/01/20 07:21:53;;;;;;;;;;;;;;;;;;;;;
2023/01/20 07:27:50;;;;;;;;;;;;;;;;;;;;;
2023/01/20 07:33:52;;;;;;;70.30;37.20;;;;;;;-1.58;100.00;100372.72;216447;1299;139476;-86
2023/01/20 07:39:53;;;;;;;96.00;48.20;;;;;;;-1.53;100.00;100381.52;216558;1297;139658;-87
2023/01/20 07:45:46;;;;;;;79.90;38.10;;;;;;;-1.47;100.00;100391.83;216984;1297;139884;-85
2023/01/20 07:51:48;;;;;;;82.70;38.70;;;;;;;-1.40;100.00;100397.47;216379;1300;139573;-86
2023/01/20 07:57:41;;;;;;;;;;;;;;;;;;;;;
2023/01/20 08:09:44;;;;;;;82.00;39.30;;;;;;;-1.13;100.00;100412.72;216546;1298;140045;-86
2023/01/20 08:15:45;;;;;;;76.00;36.80;;;;;;;-1.05;100.00;100417.14;216974;1297;139567;-86
2023/01/20 08:21:46;;;;;;;73.50;37.20;;;;;;;-0.99;100.00;100418.96;216418;1298;139313;-86
2023/01/20 08:27:23;;;;;;;;;;;;;;;;;;;;;
2023/01/20 08:33:25;;;;;;;79.30;38.00;;;;;;;-0.81;100.00;100425.75;216449;1296;140265;-87
2023/01/20 08:39:24;;;;;;;;;;;;;;;;;;;;;
2023/01/20 08:51:30;;;;;;;83.50;41.20;;;;;;;-0.47;100.00;100439.80;216350;1297;139357;-86
2023/01/20 08:57:30;;;;;;;76.20;38.10;;;;;;;-0.35;100.00;100444.82;217035;1298;139930;-87
2023/01/20 09:03:34;;;;;;;68.80;35.80;;;;;;;-0.23;100.00;100459.70;216554;1298;139340;-86
2023/01/20 09:09:35;;;;;;;75.50;37.80;;;;;;;-0.14;100.00;100466.61;216516;1298;139236;-87
2023/01/20 09:15:39;;;;;;;77.90;39.40;;;;;;;-0.06;100.00;100488.67;217021;1299;139261;-89
2023/01/20 09:21:29;;;;;;;;;;;;;;;;;;;;;
2023/01/20 09:27:31;;;;;;;74.30;37.20;;;;;;;0.09;100.00;100508.40;217136;1296;139626;-88
2023/01/20 09:33:34;;;;;;;78.40;40.10;;;;;;;0.13;100.00;100522.73;216338;1299;139064;-86
2023/01/20 09:58:01;;;;;;;;;;;;;;;;;;;;;
2023/01/20 10:04:04;;;;;;;83.30;41.40;;;;;;;0.58;100.00;100532.60;216336;1297;139184;-84
2023/01/20 10:10:09;;;;;;;;;;;;;;;;;;;;;
2023/01/20 10:16:19;;;;;;;80.20;41.50;;;;;;;0.82;100.00;100534.74;217054;1297;138790;-84
2023/01/20 10:28:28;;;;;;;;;;;;;;;;;;;;;
2023/01/20 10:34:06;;;;;;;62.30;32.60;;;;;;;1.21;100.00;100514.15;216663;1296;139749;-84
2023/01/20 10:40:06;;;;;;;;;;;;;;;;;;;;;
2023/01/20 10:46:24;;;;;;;60.60;33.60;;;;;;;1.48;100.00;100492.77;217007;1296;138915;-83
2023/01/20 10:52:26;;;;;;;;;;;;;;;;;;;;;
2023/01/20 10:58:35;;;;;;;;;;;;;;;;;;;;;
2023/01/20 11:04:30;;;;;;;;;;;;;;;;;;;;;
2023/01/20 11:10:35;;;;;;;61.70;30.80;;;;;;;1.86;100.00;100526.55;216468;1296;139376;-83
2023/01/20 11:16:39;;;;;;;60.70;33.40;;;;;;;1.85;100.00;100539.20;216941;1297;138963;-83
2023/01/20 11:22:59;;;;;;;57.00;32.30;;;;;;;1.66;100.00;100545.02;216300;1296;139195;-83
2023/01/20 11:28:40;;;;;;;;;;;;;;;;;;;;;
2023/01/20 11:35:01;;;;;;;65.00;33.80;;;;;;;1.89;100.00;100543.33;216680;1296;138728;-84
2023/01/20 11:40:45;;;;;;;;;;;;;;;;;;;;;
2023/01/20 11:46:43;;;;;;;;;;;;;;;;;;;;;
2023/01/20 11:53:23;;;;;;;62.30;32.40;;;;;;;2.10;100.00;100562.38;216233;1296;139074;-83
2023/01/20 11:59:09;;;;;;;52.10;27.60;;;;;;;2.16;100.00;100574.95;216485;1297;139429;-83
2023/01/20 12:05:19;;;;;;;55.50;30.30;;;;;;;1.99;100.00;100593.66;216903;1296;138778;-84
2023/01/20 12:11:26;;;;;;;53.60;28.20;;;;;;;2.05;100.00;100597.61;216564;1296;139460;-83
2023/01/20 12:17:25;;;;;;;58.20;29.90;;;;;;;2.10;100.00;100603.67;217070;1296;139256;-83
2023/01/20 12:23:45;;;;;;;57.80;30.40;;;;;;;2.17;100.00;100611.05;216510;1296;138950;-83
2023/01/20 12:30:07;;;;;;;60.00;30.20;;;;;;;2.13;100.00;100609.52;216332;1296;139276;-83
2023/01/20 12:36:08;;;;;;;50.20;26.70;;;;;;;2.12;100.00;100612.45;215392;1306;104956;-83
2023/01/20 12:42:07;;;;;;;;;;;;;;;;;;;;;
2023/01/20 12:48:19;;;;;;;;;;;;;;;;;;;;;
2023/01/20 12:54:40;;;;;;;49.60;28.60;;;;;;;2.02;100.00;100625.45;216864;1299;106042;-83
2023/01/20 13:00:53;;;;;;;53.20;29.50;;;;;;;2.10;100.00;100641.37;216310;1299;139363;-84
2023/01/20 13:06:57;;;;;;;51.40;27.90;;;;;;;2.13;100.00;100640.42;216830;1299;105172;-84
2023/01/20 13:13:08;;;;;;;;;;;;;;;;;;;;;
2023/01/20 13:19:16;;;;;;;56.60;30.30;;;;;;;2.07;100.00;100651.67;216401;1297;139549;-83
2023/01/20 13:25:09;;;;;;;;;;;;;;;;;;;;;
2023/01/20 13:31:17;;;;;;;72.80;38.40;;;;;;;2.04;100.00;100661.16;216261;1297;140142;-87
2023/01/20 13:37:10;;;;;;;;;;;;;;;;;;;;;
2023/01/20 13:43:35;;;;;;;;;;;;;;;;;;;;;
2023/01/20 13:49:51;;;;;;;67.10;35.50;;;;;;;1.97;100.00;100657.48;216608;1298;139519;-88
2023/01/20 14:02:02;;;;;;;;;;;;;;;;;;;;;
2023/01/20 14:08:04;;;;;;;59.30;32.60;;;;;;;1.80;100.00;100681.84;216959;1299;139413;-88
2023/01/20 14:13:57;;;;;;;;;;;;;;;;;;;;;
2023/01/20 14:20:20;;;;;;;;;;;;;;;;;;;;;
2023/01/20 14:26:24;;;;;;;;;;;;;;;;;;;;;
2023/01/20 14:32:33;;;;;;;62.60;36.20;;;;;;;1.52;100.00;100725.77;216484;1296;141168;-86
2023/01/20 14:38:37;;;;;;;91.40;51.50;;;;;;;1.53;100.00;100727.05;216955;1297;139268;-86
2023/01/20 14:44:38;;;;;;;64.90;36.00;;;;;;;1.51;100.00;100740.05;216942;1296;139062;-86
2023/01/20 14:50:40;;;;;;;75.00;41.80;;;;;;;1.49;100.00;100750.26;216316;1296;138992;-86
2023/01/20 14:56:39;;;;;;;;;;;;;;;;;;;;;
2023/01/20 15:02:41;;;;;;;97.20;46.50;;;;;;;1.44;100.00;100784.39;216303;1296;139470;-86
2023/01/20 15:08:44;;;;;;;77.50;38.00;;;;;;;1.39;100.00;100789.98;216976;1297;139006;-91
2023/01/20 15:14:54;;;;;;;73.10;38.50;;;;;;;1.36;100.00;100791.91;216811;1296;140071;-89
2023/01/20 15:20:55;;;;;;;81.80;39.30;;;;;;;1.34;100.00;100796.80;216266;1296;139409;-89
2023/01/20 15:39:04;;;;;;;73.80;40.10;;;;;;;1.16;100.00;100812.67;216373;1296;139699;-91
2023/01/20 15:45:05;;;;;;;82.10;38.70;;;;;;;1.08;100.00;100815.45;217019;1296;138855;-90
2023/01/20 15:51:06;;;;;;;83.70;41.60;;;;;;;1.01;100.00;100825.45;216444;1297;139187;-87
2023/01/20 15:57:13;;;;;;;85.80;42.20;;;;;;;0.95;100.00;100835.98;217122;1297;139479;-91
2023/01/20 16:03:11;;;;;;;;;;;;;;;;;;;;;
2023/01/20 16:09:18;;;;;;;98.40;46.10;;;;;;;0.73;100.00;100864.02;216813;1296;139535;-89
2023/01/20 16:15:16;;;;;;;;;;;;;;;;;;;;;
2023/01/20 16:21:19;;;;;;;157.20;65.50;;;;;;;0.58;100.00;100882.27;216600;1296;139783;-90
2023/01/20 16:27:16;;;;;;;;;;;;;;;;;;;;;
2023/01/20 16:33:25;;;;;;;126.60;51.60;;;;;;;0.56;100.00;100893.39;216780;1297;139183;-92
2023/01/20 17:15:27;;;;;;;85.90;33.20;;;;;;;0.46;100.00;100934.20;216998;1300;104935;-90
2023/01/20 17:21:20;;;;;;;;;;;;;;;;;;;;;
2023/01/20 17:27:29;;;;;;;74.40;31.90;;;;;;;0.44;100.00;100948.05;216540;1302;140163;-91
2023/01/20 17:39:12;;;;;;;77.30;33.10;;;;;;;0.38;100.00;100959.95;216671;1297;139456;-90
2023/01/20 17:45:06;;;;;;;76.60;32.10;;;;;;;0.28;100.00;100971.05;217190;1298;139131;-89
2023/01/20 17:51:07;;;;;;;71.60;32.20;;;;;;;0.19;100.00;100970.13;216450;1299;139098;-89
2023/01/20 17:56:53;;;;;;;73.10;30.50;;;;;;;0.15;100.00;100967.98;217205;1298;139090;-90
2023/01/20 18:08:55;;;;;;;75.60;30.50;;;;;;;0.13;100.00;100976.08;217410;1298;140525;-90
2023/01/20 18:14:57;;;;;;;101.00;45.50;;;;;;;0.06;100.00;100984.08;217214;1299;140122;-91
2023/01/20 18:20:58;;;;;;;80.00;33.70;;;;;;;0.04;100.00;100993.19;212531;1299;5399268;-91
2023/01/20 18:26:41;;;;;;;108.50;40.20;;;;;;;0.03;100.00;100997.98;217019;1299;139168;-90
2023/01/20 18:32:31;;;;;;;70.80;32.90;;;;;;;0.02;100.00;101006.22;216462;1302;139678;-90
2023/01/20 18:39:04;;;;;;;83.30;34.80;;;;;;;0.07;100.00;101018.17;216930;1298;139238;-92
2023/01/20 18:44:42;;;;;;;65.80;28.80;;;;;;;0.07;100.00;101030.65;216652;1299;139832;-90
2023/01/20 18:50:43;;;;;;;66.40;27.10;;;;;;;0.08;100.00;101035.02;216228;1299;139659;-89
2023/01/20 18:56:32;;;;;;;66.10;27.70;;;;;;;0.05;100.00;101040.48;216732;1299;138957;-86
2023/01/20 19:02:14;;;;;;;;;;;;;;;;;;;;;
2023/01/20 19:08:17;;;;;;;63.50;25.90;;;;;;;-0.05;100.00;101058.29;216873;1298;107914;-89
2023/01/20 19:14:09;;;;;;;;;;;;;;;;;;;;;
2023/01/20 19:20:01;;;;;;;57.50;23.90;;;;;;;-0.19;100.00;101066.15;216186;1299;139342;-88
2023/01/20 19:25:53;;;;;;;;;;;;;;;;;;;;;
2023/01/20 19:37:46;;;;;;;55.30;23.00;;;;;;;-0.19;100.00;101074.64;216979;1299;108055;-90
2023/01/20 19:43:05;;;;;;;;;;;;;;;;;;;;;
2023/01/20 19:48:38;;;;;;;;;;;;;;;;;;;;;
2023/01/20 19:54:32;;;;;;;;;;;;;;;;;;;;;
2023/01/20 20:00:25;;;;;;;;;;;;;;;;;;;;;
2023/01/20 20:06:09;;;;;;;63.40;25.60;;;;;;;-0.30;100.00;101084.08;216672;1299;142773;-86
2023/01/20 20:12:04;;;;;;;;;;;;;;;;;;;;;
2023/01/20 20:17:58;;;;;;;;;;;;;;;;;;;;;
2023/01/20 20:24:00;;;;;;;64.80;26.30;;;;;;;-0.43;100.00;101094.73;216191;1299;139443;-86
2023/01/20 20:30:02;;;;;;;49.80;21.80;;;;;;;-0.48;100.00;101095.39;216144;1299;139866;-88
2023/01/20 20:36:01;;;;;;;50.40;21.10;;;;;;;-0.47;100.00;101104.13;216735;1299;139774;-88
2023/01/20 20:41:56;;;;;;;54.40;21.90;;;;;;;-0.42;100.00;101109.23;215963;1299;139631;-88
2023/01/20 20:47:56;;;;;;;43.80;19.20;;;;;;;-0.39;100.00;101113.35;216581;1299;139723;-90
2023/01/20 20:53:58;;;;;;;44.00;19.40;;;;;;;-0.39;100.00;101124.48;216179;1299;139447;-89
2023/01/20 20:59:18;;;;;;;44.70;19.60;;;;;;;-0.39;100.00;101130.02;216247;1299;140011;-89
2023/01/20 21:05:11;;;;;;;47.30;21.30;;;;;;;-0.46;100.00;101145.17;216842;1299;139773;-88
2023/01/20 21:11:02;;;;;;;42.20;18.00;;;;;;;-0.52;100.00;101147.34;216136;1299;139633;-87
2023/01/20 21:17:03;;;;;;;43.20;19.40;;;;;;;-0.56;100.00;101152.09;216681;1299;139735;-88
2023/01/20 21:22:56;;;;;;;40.40;18.20;;;;;;;-0.61;100.00;101148.95;216049;1299;139751;-88
2023/01/20 21:28:37;;;;;;;;;;;;;;;;;;;;;
2023/01/20 21:34:09;;;;;;;;;;;;;;;;;;;;;
2023/01/20 21:40:13;;;;;;;34.60;16.20;;;;;;;-0.64;100.00;101143.52;216180;1299;141459;-91
2023/01/20 21:46:15;;;;;;;36.40;16.50;;;;;;;-0.64;100.00;101140.98;216842;1299;139711;-90
2023/01/20 21:57:56;;;;;;;37.60;16.60;;;;;;;-0.65;100.00;101150.66;216739;1299;139290;-89
2023/01/20 22:03:46;;;;;;;34.30;16.60;;;;;;;-0.65;100.00;101145.91;216065;1299;139964;-89
2023/01/20 22:09:22;;;;;;;;;;;;;;;;;;;;;
2023/01/20 22:15:08;;;;;;;37.90;17.60;;;;;;;-0.65;100.00;101146.55;216730;1299;140071;-90
2023/01/20 22:21:06;;;;;;;37.30;17.00;;;;;;;-0.66;100.00;101149.38;216481;1299;139755;-89
2023/01/20 22:26:52;;;;;;;37.30;16.10;;;;;;;-0.65;100.00;101150.84;216855;1299;139943;-89
2023/01/20 22:32:40;;;;;;;43.80;19.30;;;;;;;-0.62;100.00;101144.47;216179;1299;139772;-89
2023/01/20 22:38:34;;;;;;;;;;;;;;;;;;;;;
2023/01/20 22:44:37;;;;;;;34.30;16.20;;;;;;;-0.60;100.00;101160.30;216604;1299;245139;-88
2023/01/20 22:50:30;;;;;;;36.30;16.30;;;;;;;-0.57;100.00;101164.36;216405;1299;140316;-90
2023/01/20 22:56:31;;;;;;;36.40;16.20;;;;;;;-0.56;100.00;101165.27;216838;1299;96072;-90
2023/01/20 23:02:02;;;;;;;38.40;18.60;;;;;;;-0.54;100.00;101156.29;216233;1299;140332;-87
2023/01/20 23:08:03;;;;;;;37.30;15.60;;;;;;;-0.54;100.00;101153.79;216677;1299;139435;-88
2023/01/20 23:14:04;;;;;;;;;;;;;;;;;;;;;
2023/01/20 23:25:31;;;;;;;;;;;;;;;;;;;;;
2023/01/20 23:31:27;;;;;;;;;;;;;;;;;;;;;
2023/01/20 23:37:19;;;;;;;37.30;15.50;;;;;;;-0.51;100.00;101106.13;216734;1299;139906;-88
2023/01/20 23:43:19;;;;;;;;;;;;;;;;;;;;;
2023/01/20 23:49:13;;;;;;;;;;;;;;;;;;;;;
2023/01/20 23:55:16;;;;;;;43.30;17.80;;;;;;;-0.62;100.00;101127.71;216658;1299;139775;-90
